createdAt,value
2022-10-13T00:03:13.361Z,6.63
2022-10-13T00:08:19.854Z,5.90
2022-10-13T00:13:21.824Z,6.60
2022-10-13T00:18:23.650Z,6.97
2022-10-13T00:23:25.685Z,5.90
2022-10-13T00:28:27.530Z,7.30
2022-10-13T00:33:29.530Z,5.60
2022-10-13T00:38:31.334Z,5.70
2022-10-13T00:44:00.580Z,6.00
2022-10-13T00:49:11.855Z,5.88
2022-10-13T00:54:20.578Z,6.15
2022-10-13T00:59:27.573Z,6.10
2022-10-13T01:04:37.365Z,5.53
2022-10-13T01:09:39.158Z,6.30
2022-10-13T01:14:50.750Z,5.88
2022-10-13T01:20:30.325Z,5.53
2022-10-13T01:25:55.516Z,5.97
2022-10-13T01:31:15.086Z,6.25
2022-10-13T01:36:33.115Z,6.05
2022-10-13T01:41:46.857Z,5.68
2022-10-13T01:46:51.731Z,6.35
2022-10-13T01:51:56.333Z,5.65
2022-10-13T01:56:58.219Z,6.22
2022-10-13T02:02:19.560Z,6.10
2022-10-13T02:07:34.631Z,6.05
2022-10-13T02:12:50.389Z,5.63
2022-10-13T02:17:53.475Z,6.00
2022-10-13T02:23:01.351Z,5.55
2022-10-13T02:28:04.196Z,6.10
2022-10-13T02:33:11.398Z,6.97
2022-10-13T02:38:13.486Z,6.57
2022-10-13T02:43:15.371Z,5.93
2022-10-13T02:48:17.178Z,6.03
2022-10-13T02:53:19.026Z,6.10
2022-10-13T02:58:20.997Z,7.03
2022-10-13T03:03:22.800Z,6.15
2022-10-13T03:08:26.139Z,6.32
2022-10-13T03:13:28.368Z,6.45
2022-10-13T03:18:35.509Z,6.82
2022-10-13T03:23:37.329Z,6.32
2022-10-13T03:28:39.165Z,5.82
2022-10-13T03:33:41.206Z,5.95
2022-10-13T03:38:43.271Z,6.00
2022-10-13T03:43:46.215Z,6.82
2022-10-13T03:48:48.267Z,6.32
2022-10-13T03:53:52.017Z,6.47
2022-10-13T03:58:56.654Z,6.22
2022-10-13T04:03:59.712Z,6.40
2022-10-13T04:09:01.574Z,6.68
2022-10-13T04:14:03.767Z,6.75
2022-10-13T04:19:05.928Z,7.25
2022-10-13T04:24:08.674Z,5.85
2022-10-13T04:29:13.422Z,6.28
2022-10-13T04:34:15.227Z,7.03
2022-10-13T04:39:17.035Z,7.50
2022-10-13T04:44:19.029Z,6.75
2022-10-13T04:49:20.870Z,6.82
2022-10-13T04:54:22.718Z,7.30
2022-10-13T04:59:24.505Z,7.00
2022-10-13T05:04:26.314Z,7.20
2022-10-13T05:09:28.153Z,7.05
2022-10-13T05:14:31.191Z,6.28
2022-10-13T05:19:35.006Z,7.45
2022-10-13T05:24:36.834Z,7.95
2022-10-13T05:29:39.569Z,7.78
2022-10-13T05:34:41.353Z,7.45
2022-10-13T05:39:47.040Z,6.90
2022-10-13T05:44:51.243Z,7.43
2022-10-13T05:49:53.044Z,7.25
2022-10-13T05:55:02.339Z,7.70
2022-10-13T06:00:16.441Z,7.88
2022-10-13T06:05:21.847Z,7.50
2022-10-13T06:10:27.630Z,6.85
2022-10-13T06:15:29.401Z,7.93
2022-10-13T06:20:31.343Z,7.38
2022-10-13T06:25:33.160Z,6.68
2022-10-13T06:30:34.934Z,7.22
2022-10-13T06:35:36.724Z,7.35
2022-10-13T06:40:38.595Z,7.18
2022-10-13T06:45:40.429Z,7.13
2022-10-13T06:50:43.072Z,7.68
2022-10-13T06:55:47.090Z,8.65
2022-10-13T07:00:52.681Z,8.30
2022-10-13T07:05:54.876Z,7.85
2022-10-13T07:10:57.156Z,7.00
2022-10-13T07:15:58.987Z,8.55
2022-10-13T07:21:01.535Z,8.85
2022-10-13T07:26:08.016Z,8.98
2022-10-13T07:31:14.659Z,10.07
2022-10-13T07:36:16.926Z,10.05
2022-10-13T07:41:18.727Z,9.63
2022-10-13T07:46:20.726Z,9.07
2022-10-13T07:51:23.025Z,9.43
2022-10-13T07:56:24.887Z,9.85
2022-10-13T08:01:27.153Z,10.82
2022-10-13T08:06:29.351Z,10.55
2022-10-13T08:11:33.014Z,11.88
2022-10-13T08:16:34.841Z,11.38
2022-10-13T08:26:59.248Z,11.00
2022-10-13T08:32:01.304Z,11.60
2022-10-13T08:37:04.487Z,11.77
2022-10-13T08:42:22.251Z,11.48
2022-10-13T08:47:27.463Z,11.30
2022-10-13T08:52:45.028Z,10.45
2022-10-13T08:57:46.961Z,10.23
2022-10-13T09:02:49.779Z,8.45
2022-10-13T09:13:01.351Z,8.20
2022-10-13T09:18:12.073Z,9.05
2022-10-13T09:23:23.159Z,9.07
2022-10-13T09:28:30.458Z,8.23
2022-10-13T09:33:37.190Z,8.25
2022-10-13T09:38:40.978Z,8.00
2022-10-13T09:43:48.650Z,7.07
2022-10-13T09:49:31.833Z,7.15
2022-10-13T09:54:40.449Z,5.70
2022-10-13T09:59:48.996Z,6.40
2022-10-13T10:04:53.739Z,6.30
2022-10-13T10:09:59.098Z,5.55
2022-10-13T10:15:01.577Z,6.28
2022-10-13T10:20:33.552Z,4.93
2022-10-13T10:25:44.811Z,5.35
2022-10-13T10:30:54.844Z,4.82
2022-10-13T10:36:16.759Z,5.03
2022-10-13T10:41:40.855Z,5.10
2022-10-13T10:46:48.179Z,5.50
2022-10-13T10:51:50.262Z,5.40
2022-10-13T10:57:21.285Z,5.32
2022-10-13T11:02:43.061Z,5.78
2022-10-13T11:07:45.632Z,6.03
2022-10-13T11:12:53.549Z,4.72
2022-10-13T11:17:55.437Z,5.25
2022-10-13T11:22:58.482Z,4.57
2022-10-13T11:28:00.331Z,4.80
2022-10-13T11:33:09.273Z,4.60
2022-10-13T11:38:35.823Z,4.90
2022-10-13T11:43:40.766Z,5.15
2022-10-13T11:49:04.471Z,5.78
2022-10-13T11:54:33.163Z,4.55
2022-10-13T11:59:39.381Z,3.90
2022-10-13T12:04:46.512Z,4.13
2022-10-13T12:09:51.698Z,4.30
2022-10-13T12:14:59.906Z,4.38
2022-10-13T12:20:21.690Z,3.67
2022-10-13T12:25:26.877Z,3.42
2022-10-13T12:30:38.280Z,4.07
2022-10-13T12:35:40.113Z,3.97
2022-10-13T12:40:42.048Z,3.55
2022-10-13T12:45:44.494Z,2.72
2022-10-13T12:50:46.287Z,3.38
2022-10-13T12:55:50.821Z,3.50
2022-10-13T13:01:15.737Z,4.18
2022-10-13T13:06:17.505Z,4.05
2022-10-13T13:11:32.927Z,4.07
2022-10-13T13:16:39.370Z,3.67
2022-10-13T13:21:41.509Z,3.75
2022-10-13T13:26:46.038Z,4.30
2022-10-13T13:31:47.845Z,4.90
2022-10-13T13:36:50.326Z,4.10
2022-10-13T13:41:52.122Z,4.60
2022-10-13T13:46:53.929Z,3.95
2022-10-13T13:51:55.783Z,4.22
2022-10-13T13:56:58.878Z,4.93
2022-10-13T14:02:02.670Z,4.95
2022-10-13T14:07:07.892Z,4.25
2022-10-13T14:12:09.670Z,4.45
2022-10-13T14:17:11.468Z,4.88
2022-10-13T14:22:13.300Z,5.47
2022-10-13T14:27:15.445Z,4.90
2022-10-13T14:32:17.398Z,5.57
2022-10-13T14:37:23.034Z,5.72
2022-10-13T14:42:26.917Z,6.38
2022-10-13T14:47:28.754Z,5.38
2022-10-13T14:52:30.668Z,6.32
2022-10-13T14:57:32.444Z,5.97
2022-10-13T15:02:34.421Z,5.97
2022-10-13T15:07:40.965Z,6.47
2022-10-13T15:12:43.764Z,6.50
2022-10-13T15:17:45.591Z,5.55
2022-10-13T15:22:48.045Z,8.88
2022-10-13T15:27:50.269Z,9.10
2022-10-13T15:32:52.716Z,7.30
2022-10-13T15:37:54.577Z,7.60
2022-10-13T15:42:56.363Z,7.50
2022-10-13T15:47:58.286Z,7.72
2022-10-13T15:53:00.283Z,7.28
2022-10-13T15:58:02.104Z,10.73
2022-10-13T16:03:05.064Z,9.38
2022-10-13T16:08:06.877Z,8.75
2022-10-13T16:13:12.486Z,8.50
2022-10-13T16:18:14.292Z,8.55
2022-10-13T16:23:16.079Z,9.27
2022-10-13T16:28:18.259Z,10.27
2022-10-13T16:33:20.728Z,8.65
2022-10-13T16:38:22.618Z,8.95
2022-10-13T16:43:24.508Z,10.40
2022-10-13T16:48:30.426Z,11.52
2022-10-13T16:53:32.671Z,10.27
2022-10-13T16:58:35.649Z,10.63
2022-10-13T17:03:39.906Z,11.60
2022-10-13T17:08:44.636Z,41.53
2022-10-13T17:13:47.474Z,11.32
2022-10-13T17:18:49.623Z,10.15
2022-10-13T17:23:51.609Z,10.30
2022-10-13T17:28:54.057Z,11.50
2022-10-13T17:33:56.172Z,12.65
2022-10-13T17:39:03.329Z,13.23
2022-10-13T17:44:05.247Z,13.02
2022-10-13T17:49:09.837Z,14.52
2022-10-13T17:54:16.108Z,14.38
2022-10-13T17:59:18.732Z,12.95
2022-10-13T18:04:22.370Z,12.68
2022-10-13T18:09:24.798Z,12.50
2022-10-13T18:14:27.117Z,12.48
2022-10-13T18:19:28.937Z,12.85
2022-10-13T18:24:30.838Z,12.65
2022-10-13T18:29:32.646Z,12.85
2022-10-13T18:34:34.727Z,11.55
2022-10-13T18:39:36.513Z,13.55
2022-10-13T18:44:38.341Z,12.45
2022-10-13T18:49:40.192Z,12.70
2022-10-13T18:54:42.058Z,12.45
2022-10-13T18:59:43.859Z,12.65
2022-10-13T19:04:45.725Z,13.25
2022-10-13T19:09:47.493Z,12.73
2022-10-13T19:14:49.301Z,11.80
2022-10-13T19:19:51.113Z,11.85
2022-10-13T19:24:52.930Z,12.00
2022-10-13T19:29:54.974Z,12.27
2022-10-13T19:34:57.180Z,14.43
2022-10-13T19:39:58.993Z,13.80
2022-10-13T19:45:04.967Z,14.05
2022-10-13T19:50:07.289Z,13.40
2022-10-13T19:55:09.620Z,16.40
2022-10-13T20:00:12.265Z,16.05
2022-10-13T20:05:18.248Z,28.70
2022-10-13T20:10:22.006Z,14.35
2022-10-13T20:15:23.848Z,13.85
2022-10-13T20:20:29.143Z,11.50
2022-10-13T20:25:36.974Z,11.27
2022-10-13T20:30:40.154Z,12.38
2022-10-13T20:35:42.071Z,12.40
2022-10-13T20:40:43.964Z,12.35
2022-10-13T20:45:46.932Z,13.27
2022-10-13T20:50:48.718Z,11.35
2022-10-13T20:56:00.860Z,11.35
2022-10-13T21:01:04.166Z,11.32
2022-10-13T21:06:11.261Z,12.35
2022-10-13T21:11:15.129Z,11.38
2022-10-13T21:16:23.508Z,10.65
2022-10-13T21:21:30.384Z,10.45
2022-10-13T21:26:35.260Z,13.27
2022-10-13T21:31:37.415Z,11.05
2022-10-13T21:36:44.349Z,10.07
2022-10-13T21:41:47.829Z,10.55
2022-10-13T21:46:49.965Z,9.77
2022-10-13T21:51:51.968Z,9.30
2022-10-13T21:56:53.758Z,11.13
2022-10-13T22:01:55.571Z,10.95
2022-10-13T22:06:57.393Z,10.73
2022-10-13T22:11:59.899Z,10.20
2022-10-13T22:17:01.725Z,10.65
2022-10-13T22:22:03.647Z,10.95
2022-10-13T22:27:05.430Z,11.20
2022-10-13T22:32:07.334Z,10.90
2022-10-13T22:37:09.330Z,10.25
2022-10-13T22:42:11.132Z,10.65
2022-10-13T22:47:12.989Z,10.85
2022-10-13T22:52:14.769Z,10.35
2022-10-13T22:57:17.210Z,10.50
2022-10-13T23:02:18.993Z,10.23
2022-10-13T23:07:21.039Z,9.50
2022-10-13T23:12:23.013Z,8.95
2022-10-13T23:17:24.924Z,9.25
2022-10-13T23:22:27.186Z,9.02
2022-10-13T23:27:31.229Z,7.90
2022-10-13T23:32:33.118Z,8.32
2022-10-13T23:37:35.143Z,7.90
2022-10-13T23:42:37.002Z,8.98
2022-10-13T23:47:38.821Z,7.03
2022-10-13T23:52:40.648Z,7.45
2022-10-13T23:57:42.456Z,7.47
